Time;durP1;ratioP1;P1;durP2;ratioP2;P2;SDS_P1;SDS_P2;PMS_P1;PMS_P2;Temp;Humidity;BMP_temperature;BMP_pressure;BME280_temperature;BME280_humidity;BME280_pressure;Samples;Min_cycle;Max_cycle;Signal;HPM_P1;HPM_P2
2023/04/12 00:02:52;;;;;;;;;;;;;;;;;;137411;1273;22868;-82
2023/04/12 00:05:53;;;;;;;;;;;;;;;;;;136957;1273;22477;-81
2023/04/12 00:08:55;;;;;;;;;;;;;;;;;;137031;1273;23003;-82
2023/04/12 00:11:56;;;;;;;;;;;;;;;;;;137528;1273;25429;-82
2023/04/12 00:14:57;;;;;;;;;;;;;;;;;;137009;1273;22489;-82
2023/04/12 00:17:59;;;;;;;;;;;;;;;;;;136832;1273;22976;-82
2023/04/12 00:21:02;;;;;;;;;;;;;;;;;;137431;1273;23634;-83
2023/04/12 00:24:03;;;;;;;;;;;;;;;;;;137184;1273;22882;-83
2023/04/12 00:27:05;;;;;;;;;;;;;;;;;;137009;1273;22521;-83
2023/04/12 00:30:07;;;;;;;;;;;;;;;;;;137174;1273;22511;-83
2023/04/12 00:33:08;;;;;;;;;;;;;;;;;;137381;1273;22513;-83
2023/04/12 00:36:09;;;;;;;;;;;;;;;;;;136914;1273;22862;-83
2023/04/12 00:39:10;;;;;;;;;;;;;;;;;;136984;1273;22505;-83
2023/04/12 00:42:11;;;;;;;;;;;;;;;;;;137502;1273;22559;-83
2023/04/12 00:45:12;;;;;;;;;;;;;;;;;;136883;1273;22874;-82
2023/04/12 00:48:13;;;;;;;;;;;;;;;;;;136993;1259;22574;-82
2023/04/12 00:51:16;;;;;;;;;;;;;;;;;;137480;1273;22524;-82
2023/04/12 00:54:19;;;;;;;;;;;;;;;;;;137036;1273;22863;-82
2023/04/12 00:57:21;;;;;;;;;;;;;;;;;;136915;1273;22571;-83
2023/04/12 01:00:22;;;;;;;;;;;;;;;;;;137260;1254;22943;-83
2023/04/12 01:03:23;;;;;;;;;;;;;;;;;;137316;1273;22494;-84
2023/04/12 01:06:25;;;;;;;;;;;;;;;;;;137049;1273;22988;-84
2023/04/12 01:09:29;;;;;;;;;;;;;;;;;;136896;1273;22606;-84
2023/04/12 01:12:30;;;;;;;;;;;;;;;;;;137605;1273;22504;-84
2023/04/12 01:15:31;;;;;;;;;;;;;;;;;;137032;1273;22509;-83
2023/04/12 01:18:33;;;;;;;;;;;;;;;;;;136960;1273;22598;-82
2023/04/12 01:21:34;;;;;;;;;;;;;;;;;;137566;1273;22297;-82
2023/04/12 01:24:35;;;;;;;;;;;;;;;;;;137060;1273;22519;-83
2023/04/12 01:27:37;;;;;;;;;;;;;;;;;;137010;1273;22529;-83
2023/04/12 01:30:38;;;;;;;;;;;;;;;;;;137310;1273;22623;-85
2023/04/12 01:33:39;;;;;;;;;;;;;;;;;;137184;1273;22600;-82
2023/04/12 01:36:40;;;;;;;;;;;;;;;;;;137014;1273;22988;-82
2023/04/12 01:39:41;;;;;;;;;;;;;;;;;;137124;1273;22514;-82
2023/04/12 01:42:42;;;;;;;;;;;;;;;;;;137542;1273;22551;-83
2023/04/12 01:45:43;;;;;;;;;;;;;;;;;;137028;1273;22547;-83
2023/04/12 01:48:44;;;;;;;;;;;;;;;;;;137110;1273;22551;-83
2023/04/12 01:51:45;;;;;;;;;;;;;;;;;;137603;1273;22399;-83
2023/04/12 01:54:46;;;;;;;;;;;;;;;;;;137421;1273;22542;-83
2023/04/12 01:57:47;;;;;;;;;;;;;;;;;;137037;1273;22512;-82
2023/04/12 02:00:48;;;;;;;;;;;;;;;;;;137391;1273;22523;-84
2023/04/12 02:03:49;;;;;;;;;;;;;;;;;;137163;1273;22496;-84
2023/04/12 02:06:50;;;;;;;;;;;;;;;;;;137056;1271;22506;-84
2023/04/12 02:09:52;;;;;;;;;;;;;;;;;;137284;1268;25204;-83
2023/04/12 02:12:54;;;;;;;;;;;;;;;;;;137483;1273;22509;-84
2023/04/12 02:15:55;;;;;;;;;;;;;;;;;;137132;1273;22490;-84
2023/04/12 02:18:57;;;;;;;;;;;;;;;;;;137348;1273;22572;-78
2023/04/12 02:21:58;;;;;;;;;;;;;;;;;;137479;1273;22508;-79
2023/04/12 02:24:59;;;;;;;;;;;;;;;;;;137601;1273;22865;-83
2023/04/12 02:28:00;;;;;;;;;;;;;;;;;;137106;1273;22510;-83
2023/04/12 02:31:01;;;;;;;;;;;;;;;;;;137473;1273;22497;-83
2023/04/12 02:34:02;;;;;;;;;;;;;;;;;;137073;1273;22888;-83
2023/04/12 02:37:03;;;;;;;;;;;;;;;;;;137025;1273;22508;-83
2023/04/12 02:40:05;;;;;;;;;;;;;;;;;;137302;1267;22514;-83
2023/04/12 02:43:06;;;;;;;;;;;;;;;;;;137347;1273;22507;-83
2023/04/12 02:46:07;;;;;;;;;;;;;;;;;;136953;1273;22500;-84
2023/04/12 02:49:08;;;;;;;;;;;;;;;;;;137066;1273;22539;-83
2023/04/12 02:52:09;;;;;;;;;;;;;;;;;;137455;1273;22491;-83
2023/04/12 02:55:10;;;;;;;;;;;;;;;;;;137084;1273;22514;-83
2023/04/12 02:58:12;;;;;;;;;;;;;;;;;;136996;1273;22585;-82
2023/04/12 03:01:13;;;;;;;;;;;;;;;;;;137544;1273;22364;-81
2023/04/12 03:04:15;;;;;;;;;;;;;;;;;;137008;1273;22530;-82
2023/04/12 03:07:16;;;;;;;;;;;;;;;;;;136892;1273;22526;-81
2023/04/12 03:10:17;;;;;;;;;;;;;;;;;;137322;1273;22458;-82
2023/04/12 03:13:18;;;;;;;;;;;;;;;;;;137192;1273;22550;-82
2023/04/12 03:16:20;;;;;;;;;;;;;;;;;;136981;1273;22501;-81
2023/04/12 03:19:21;;;;;;;;;;;;;;;;;;137165;1273;22528;-82
2023/04/12 03:22:22;;;;;;;;;;;;;;;;;;137505;1273;22471;-82
2023/04/12 03:25:35;;;;;;;;;;;;;;;;;;136852;1273;22998;-87
2023/04/12 03:28:37;;;;;;;;;;;;;;;;;;137025;1261;22529;-81
2023/04/12 03:31:38;;;;;;;;;;;;;;;;;;137353;1273;22551;-85
2023/04/12 03:34:39;;;;;;;;;;;;;;;;;;137054;1273;22565;-82
2023/04/12 03:37:40;;;;;;;;;;;;;;;;;;137122;1268;22515;-81
2023/04/12 03:40:43;;;;;;;;;;;;;;;;;;137433;1273;22510;-82
2023/04/12 03:43:44;;;;;;;;;;;;;;;;;;137056;1273;22522;-82
2023/04/12 03:46:46;;;;;;;;;;;;;;;;;;137190;1273;22518;-82
2023/04/12 03:49:47;;;;;;;;;;;;;;;;;;137364;1273;22508;-83
2023/04/12 03:52:48;;;;;;;;;;;;;;;;;;137295;1273;22501;-82
2023/04/12 03:55:49;;;;;;;;;;;;;;;;;;137549;1273;22398;-84
2023/04/12 03:58:50;;;;;;;;;;;;;;;;;;137435;1273;22561;-85
2023/04/12 04:01:51;;;;;;;;;;;;;;;;;;137531;1273;22511;-84
2023/04/12 04:04:52;;;;;;;;;;;;;;;;;;137610;1273;22288;-82
2023/04/12 04:07:53;;;;;;;;;;;;;;;;;;137566;1273;22288;-81
2023/04/12 04:10:54;;;;;;;;;;;;;;;;;;137631;1273;22350;-81
2023/04/12 04:13:55;;;;;;;;;;;;;;;;;;137540;1273;22173;-81
2023/04/12 04:16:56;;;;;;;;;;;;;;;;;;137590;1273;22182;-82
2023/04/12 04:19:57;;;;;;;;;;;;;;;;;;137607;1273;22296;-83
2023/04/12 04:22:58;;;;;;;;;;;;;;;;;;137587;1273;22183;-83
2023/04/12 04:26:04;;;;;;;;;;;;;;;;;;137625;1273;22354;-81
2023/04/12 04:29:05;;;;;;;;;;;;;;;;;;137567;1273;22767;-81
2023/04/12 04:32:06;;;;;;;;;;;;;;;;;;137592;1262;22177;-81
2023/04/12 04:35:07;;;;;;;;;;;;;;;;;;137603;1273;22267;-81
2023/04/12 04:38:09;;;;;;;;;;;;;;;;;;137591;1273;22257;-82
2023/04/12 04:41:11;;;;;;;;;;;;;;;;;;137605;1273;22303;-81
2023/04/12 04:44:12;;;;;;;;;;;;;;;;;;137641;1273;22788;-81
2023/04/12 04:47:13;;;;;;;;;;;;;;;;;;137609;1273;22311;-81
2023/04/12 04:50:14;;;;;;;;;;;;;;;;;;137593;1273;22731;-80
2023/04/12 04:53:15;;;;;;;;;;;;;;;;;;137481;1273;22675;-84
2023/04/12 04:56:16;;;;;;;;;;;;;;;;;;137623;1273;22366;-82
2023/04/12 04:59:18;;;;;;;;;;;;;;;;;;137619;1273;22293;-83
2023/04/12 05:02:20;;;;;;;;;;;;;;;;;;137596;1273;22183;-81
2023/04/12 05:05:22;;;;;;;;;;;;;;;;;;137600;1273;22848;-81
2023/04/12 05:08:23;;;;;;;;;;;;;;;;;;137562;1273;22167;-81
2023/04/12 05:11:24;;;;;;;;;;;;;;;;;;137595;1273;22267;-82
2023/04/12 05:14:25;;;;;;;;;;;;;;;;;;137571;1273;22516;-84
2023/04/12 05:17:27;;;;;;;;;;;;;;;;;;137609;1273;22275;-84
2023/04/12 05:20:28;;;;;;;;;;;;;;;;;;137611;1273;22168;-85
2023/04/12 05:23:29;;;;;;;;;;;;;;;;;;137645;1273;22168;-82
2023/04/12 05:26:30;;;;;;;;;;;;;;;;;;137626;1273;22663;-82
2023/04/12 05:29:31;;;;;;;;;;;;;;;;;;137552;1273;22207;-82
2023/04/12 05:32:32;;;;;;;;;;;;;;;;;;137616;1271;22200;-82
2023/04/12 05:35:33;;;;;;;;;;;;;;;;;;137559;1273;22334;-81
2023/04/12 05:38:35;;;;;;;;;;;;;;;;;;137587;1273;22276;-81
2023/04/12 05:41:36;;;;;;;;;;;;;;;;;;137584;1273;22295;-81
2023/04/12 05:44:37;;;;;;;;;;;;;;;;;;137557;1273;22555;-83
2023/04/12 05:47:38;;;;;;;;;;;;;;;;;;137563;1273;22238;-83
2023/04/12 05:50:39;;;;;;;;;;;;;;;;;;137590;1273;22719;-82
2023/04/12 05:53:40;;;;;;;;;;;;;;;;;;137570;1273;22321;-82
2023/04/12 05:56:41;;;;;;;;;;;;;;;;;;137579;1273;22377;-81
2023/04/12 05:59:42;;;;;;;;;;;;;;;;;;137571;1273;22251;-82
2023/04/12 06:02:43;;;;;;;;;;;;;;;;;;137582;1273;22190;-81
2023/04/12 06:05:44;;;;;;;;;;;;;;;;;;137565;1273;22218;-82
2023/04/12 06:08:46;;;;;;;;;;;;;;;;;;137549;1273;22187;-83
2023/04/12 06:11:47;;;;;;;;;;;;;;;;;;137529;1273;23092;-82
2023/04/12 06:14:48;;;;;;;;;;;;;;;;;;137581;1273;22658;-82
2023/04/12 06:17:50;;;;;;;;;;;;;;;;;;137554;1273;22194;-82
2023/04/12 06:20:51;;;;;;;;;;;;;;;;;;137560;1273;22612;-82
2023/04/12 06:23:52;;;;;;;;;;;;;;;;;;137562;1273;22193;-83
2023/04/12 06:26:53;;;;;;;;;;;;;;;;;;137562;1273;22359;-82
2023/04/12 06:29:54;;;;;;;;;;;;;;;;;;137564;1273;22263;-82
2023/04/12 06:32:55;;;;;;;;;;;;;;;;;;137596;1273;22276;-84
2023/04/12 06:35:56;;;;;;;;;;;;;;;;;;137559;1273;22623;-81
2023/04/12 06:38:57;;;;;;;;;;;;;;;;;;137566;1273;22208;-83
2023/04/12 06:41:59;;;;;;;;;;;;;;;;;;137584;1273;22267;-85
2023/04/12 06:45:00;;;;;;;;;;;;;;;;;;137626;1273;22254;-82
2023/04/12 06:48:01;;;;;;;;;;;;;;;;;;137578;1273;22265;-83
2023/04/12 06:51:02;;;;;;;;;;;;;;;;;;137582;1273;22199;-82
2023/04/12 06:54:03;;;;;;;;;;;;;;;;;;137556;1273;22186;-81
2023/04/12 06:57:04;;;;;;;;;;;;;;;;;;137547;1273;22360;-82
2023/04/12 07:00:05;;;;;;;;;;;;;;;;;;137565;1262;22788;-82
2023/04/12 07:03:06;;;;;;;;;;;;;;;;;;137558;1273;22209;-81
2023/04/12 07:06:08;;;;;;;;;;;;;;;;;;137581;1273;22279;-81
2023/04/12 07:09:09;;;;;;;;;;;;;;;;;;137586;1273;22289;-84
2023/04/12 07:12:10;;;;;;;;;;;;;;;;;;137396;1273;207379;-81
2023/04/12 07:15:11;;;;;;;;;;;;;;;;;;137536;1273;22293;-83
2023/04/12 07:18:12;;;;;;;;;;;;;;;;;;137575;1273;22763;-81
2023/04/12 07:21:16;;;;;;;;;;;;;;;;;;137566;1270;22656;-82
2023/04/12 07:24:17;;;;;;;;;;;;;;;;;;137551;1273;22190;-81
2023/04/12 07:27:18;;;;;;;;;;;;;;;;;;137523;1273;22325;-81
2023/04/12 07:33:41;;;;;;;;;;;;;;;;;;137500;1273;22454;-80
2023/04/12 07:36:45;;;;;;;;;;;;;;;;;;137543;1273;22672;-83
2023/04/12 07:39:47;;;;;;;;;;;;;;;;;;137557;1270;22710;-83
2023/04/12 07:42:48;;;;;;;;;;;;;;;;;;137532;1268;22264;-83
2023/04/12 07:45:49;;;;;;;;;;;;;;;;;;137575;1273;22759;-82
2023/04/12 07:48:50;;;;;;;;;;;;;;;;;;137551;1273;22331;-82
2023/04/12 07:51:51;;;;;;;;;;;;;;;;;;137420;1273;22392;-82
2023/04/12 07:54:53;;;;;;;;;;;;;;;;;;137557;1273;22740;-83
2023/04/12 07:57:54;;;;;;;;;;;;;;;;;;137544;1273;22426;-82
2023/04/12 08:00:56;;;;;;;;;;;;;;;;;;137576;1273;22602;-83
2023/04/12 08:04:00;;;;;;;;;;;;;;;;;;137567;1273;22277;-82
2023/04/12 08:07:01;;;;;;;;;;;;;;;;;;137515;1273;22272;-81
2023/04/12 08:10:02;;;;;;;;;;;;;;;;;;137482;1273;22259;-80
2023/04/12 08:13:03;;;;;;;;;;;;;;;;;;137445;1273;22254;-81
2023/04/12 08:16:05;;;;;;;;;;;;;;;;;;137485;1273;22174;-83
2023/04/12 08:19:06;;;;;;;;;;;;;;;;;;137486;1272;22210;-82
2023/04/12 08:22:07;;;;;;;;;;;;;;;;;;137507;1273;22170;-82
2023/04/12 08:25:09;;;;;;;;;;;;;;;;;;137555;1273;22353;-81
2023/04/12 08:28:11;;;;;;;;;;;;;;;;;;137390;1273;22219;-81
2023/04/12 08:31:12;;;;;;;;;;;;;;;;;;137510;1273;22244;-81
2023/04/12 08:34:13;;;;;;;;;;;;;;;;;;137497;1273;22248;-82
2023/04/12 08:37:17;;;;;;;;;;;;;;;;;;137537;1273;22198;-81
2023/04/12 08:40:20;;;;;;;;;;;;;;;;;;137531;1273;22275;-83
2023/04/12 08:43:21;;;;;;;;;;;;;;;;;;137550;1273;22268;-81
2023/04/12 08:46:22;;;;;;;;;;;;;;;;;;137574;1273;22190;-81
2023/04/12 08:49:23;;;;;;;;;;;;;;;;;;137545;1273;22182;-84
2023/04/12 08:52:25;;;;;;;;;;;;;;;;;;137548;1273;22330;-83
2023/04/12 08:55:26;;;;;;;;;;;;;;;;;;137523;1273;22383;-82
2023/04/12 08:58:30;;;;;;;;;;;;;;;;;;137572;1273;22687;-82
2023/04/12 09:01:31;;;;;;;;;;;;;;;;;;137570;1273;22327;-81
2023/04/12 09:04:32;;;;;;;;;;;;;;;;;;137552;1273;22227;-81
2023/04/12 09:07:33;;;;;;;;;;;;;;;;;;137588;1261;22174;-83
2023/04/12 09:10:35;;;;;;;;;;;;;;;;;;137591;1264;22227;-83
2023/04/12 09:13:36;;;;;;;;;;;;;;;;;;137600;1262;22170;-82
2023/04/12 09:16:37;;;;;;;;;;;;;;;;;;137578;1273;22187;-82
2023/04/12 09:19:38;;;;;;;;;;;;;;;;;;137526;1273;22773;-81
2023/04/12 09:22:43;;;;;;;;;;;;;;;;;;137526;1273;22184;-83
2023/04/12 09:25:46;;;;;;;;;;;;;;;;;;137531;1273;22784;-83
2023/04/12 09:28:48;;;;;;;;;;;;;;;;;;137545;1273;22661;-82
2023/04/12 09:31:49;;;;;;;;;;;;;;;;;;137561;1273;22239;-83
2023/04/12 09:34:50;;;;;;;;;;;;;;;;;;137579;1273;22191;-83
2023/04/12 09:37:51;;;;;;;;;;;;;;;;;;137547;1273;22350;-82
2023/04/12 09:40:53;;;;;;;;;;;;;;;;;;137516;1273;22179;-83
2023/04/12 09:43:54;;;;;;;;;;;;;;;;;;137556;1273;22610;-82
2023/04/12 09:46:55;;;;;;;;;;;;;;;;;;137546;1273;22191;-82
2023/04/12 09:49:56;;;;;;;;;;;;;;;;;;137534;1273;22203;-81
2023/04/12 09:52:57;;;;;;;;;;;;;;;;;;137492;1257;22407;-82
2023/04/12 09:55:59;;;;;;;;;;;;;;;;;;137606;1273;22368;-82
2023/04/12 09:59:00;;;;;;;;;;;;;;;;;;137548;1273;22222;-82
2023/04/12 10:02:02;;;;;;;;;;;;;;;;;;137491;1273;22320;-81
2023/04/12 10:05:03;;;;;;;;;;;;;;;;;;137536;1273;22282;-81
2023/04/12 10:08:04;;;;;;;;;;;;;;;;;;137512;1273;22714;-80
2023/04/12 10:11:05;;;;;;;;;;;;;;;;;;137520;1273;22225;-83
2023/04/12 10:14:06;;;;;;;;;;;;;;;;;;137479;1273;22194;-82
2023/04/12 10:17:07;;;;;;;;;;;;;;;;;;137519;1273;22280;-83
2023/04/12 10:20:09;;;;;;;;;;;;;;;;;;137523;1273;22164;-83
2023/04/12 10:23:11;;;;;;;;;;;;;;;;;;137584;1273;22293;-83
2023/04/12 10:26:12;;;;;;;;;;;;;;;;;;137551;1273;22799;-83
2023/04/12 10:29:13;;;;;;;;;;;;;;;;;;137558;1273;22261;-82
2023/04/12 10:32:14;;;;;;;;;;;;;;;;;;137538;1273;22645;-83
2023/04/12 10:35:15;;;;;;;;;;;;;;;;;;137551;1273;22209;-82
2023/04/12 10:38:16;;;;;;;;;;;;;;;;;;137539;1273;22295;-84
2023/04/12 10:41:18;;;;;;;;;;;;;;;;;;137506;1273;22179;-82
2023/04/12 10:44:19;;;;;;;;;;;;;;;;;;137552;1273;22168;-83
2023/04/12 10:47:20;;;;;;;;;;;;;;;;;;137555;1273;22170;-85
2023/04/12 10:50:23;;;;;;;;;;;;;;;;;;137523;1273;22181;-84
2023/04/12 10:53:24;;;;;;;;;;;;;;;;;;137579;1273;22181;-82
2023/04/12 10:56:25;;;;;;;;;;;;;;;;;;137513;1273;22339;-83
2023/04/12 10:59:26;;;;;;;;;;;;;;;;;;137520;1273;22298;-83
2023/04/12 11:02:27;;;;;;;;;;;;;;;;;;137553;1266;22232;-81
2023/04/12 11:05:28;;;;;;;;;;;;;;;;;;137568;1273;22229;-82
2023/04/12 11:08:29;;;;;;;;;;;;;;;;;;137519;1273;22186;-84
2023/04/12 11:11:36;;;;;;;;;;;;;;;;;;137580;1273;22177;-84
2023/04/12 11:14:37;;;;;;;;;;;;;;;;;;137597;1273;22644;-82
2023/04/12 11:17:38;;;;;;;;;;;;;;;;;;137555;1273;22565;-84
2023/04/12 11:20:39;;;;;;;;;;;;;;;;;;137570;1273;22201;-83
2023/04/12 11:23:40;;;;;;;;;;;;;;;;;;137537;1270;22227;-83
2023/04/12 11:26:41;;;;;;;;;;;;;;;;;;137621;1273;22369;-82
2023/04/12 11:29:42;;;;;;;;;;;;;;;;;;137575;1273;22876;-83
2023/04/12 11:32:43;;;;;;;;;;;;;;;;;;137574;1273;22188;-82
2023/04/12 11:35:47;;;;;;;;;;;;;;;;;;137549;1273;22391;-82
2023/04/12 11:38:49;;;;;;;;;;;;;;;;;;137555;1273;22348;-83
2023/04/12 11:41:52;;;;;;;;;;;;;;;;;;137567;1273;22282;-82
2023/04/12 11:44:53;;;;;;;;;;;;;;;;;;137511;1273;22354;-82
2023/04/12 11:47:56;;;;;;;;;;;;;;;;;;137579;1273;22621;-81
2023/04/12 11:50:58;;;;;;;;;;;;;;;;;;137558;1273;22206;-81
2023/04/12 11:53:59;;;;;;;;;;;;;;;;;;137553;1273;22266;-83
2023/04/12 11:57:00;;;;;;;;;;;;;;;;;;137604;1273;23135;-81
2023/04/12 12:00:04;;;;;;;;;;;;;;;;;;137521;1273;22228;-80
2023/04/12 12:03:05;;;;;;;;;;;;;;;;;;137542;1273;22275;-83
2023/04/12 12:06:07;;;;;;;;;;;;;;;;;;137523;1273;22864;-82
2023/04/12 12:09:08;;;;;;;;;;;;;;;;;;137486;1273;22253;-83
2023/04/12 12:12:09;;;;;;;;;;;;;;;;;;137472;1273;22371;-83
2023/04/12 12:15:10;;;;;;;;;;;;;;;;;;137490;1273;22210;-81
2023/04/12 12:18:11;;;;;;;;;;;;;;;;;;137479;1273;22179;-82
2023/04/12 12:21:12;;;;;;;;;;;;;;;;;;137454;1273;22164;-81
2023/04/12 12:24:18;;;;;;;;;;;;;;;;;;137486;1273;22193;-81
2023/04/12 12:27:21;;;;;;;;;;;;;;;;;;137479;1273;22218;-81
2023/04/12 12:30:22;;;;;;;;;;;;;;;;;;137440;1273;22171;-81
2023/04/12 12:33:24;;;;;;;;;;;;;;;;;;137496;1273;22186;-82
2023/04/12 12:36:26;;;;;;;;;;;;;;;;;;137495;1273;22358;-80
2023/04/12 12:39:27;;;;;;;;;;;;;;;;;;137480;1273;22979;-81
2023/04/12 12:42:28;;;;;;;;;;;;;;;;;;137572;1273;22243;-81
2023/04/12 12:45:29;;;;;;;;;;;;;;;;;;137504;1273;22267;-82
2023/04/12 12:48:30;;;;;;;;;;;;;;;;;;137506;1273;22323;-83
2023/04/12 12:51:31;;;;;;;;;;;;;;;;;;137535;1262;22628;-83
2023/04/12 12:54:33;;;;;;;;;;;;;;;;;;137587;1273;22166;-84
2023/04/12 12:57:34;;;;;;;;;;;;;;;;;;137547;1273;23059;-82
2023/04/12 13:00:35;;;;;;;;;;;;;;;;;;137510;1273;22159;-82
2023/04/12 13:03:36;;;;;;;;;;;;;;;;;;137457;1273;22180;-81
2023/04/12 13:06:38;;;;;;;;;;;;;;;;;;137468;1273;22380;-81
2023/04/12 13:09:41;;;;;;;;;;;;;;;;;;137493;1273;22284;-81
2023/04/12 13:12:42;;;;;;;;;;;;;;;;;;137483;1270;22867;-81
2023/04/12 13:15:45;;;;;;;;;;;;;;;;;;137543;1273;22193;-81
2023/04/12 13:18:46;;;;;;;;;;;;;;;;;;137566;1273;22200;-80
2023/04/12 13:21:48;;;;;;;;;;;;;;;;;;137537;1273;22678;-82
2023/04/12 13:24:50;;;;;;;;;;;;;;;;;;137493;1273;22931;-82
2023/04/12 13:27:51;;;;;;;;;;;;;;;;;;137522;1271;22242;-81
2023/04/12 13:30:52;;;;;;;;;;;;;;;;;;137577;1273;22309;-82
2023/04/12 13:33:54;;;;;;;;;;;;;;;;;;137470;1273;22766;-82
2023/04/12 13:36:55;;;;;;;;;;;;;;;;;;137486;1273;22379;-82
2023/04/12 13:39:57;;;;;;;;;;;;;;;;;;137546;1273;22218;-82
2023/04/12 13:43:01;;;;;;;;;;;;;;;;;;137614;1273;22294;-82
2023/04/12 13:46:02;;;;;;;;;;;;;;;;;;137600;1273;22252;-84
2023/04/12 13:49:04;;;;;;;;;;;;;;;;;;137590;1273;23043;-82
2023/04/12 13:52:05;;;;;;;;;;;;;;;;;;137542;1273;22243;-82
2023/04/12 13:55:07;;;;;;;;;;;;;;;;;;137619;1273;22377;-84
2023/04/12 13:58:08;;;;;;;;;;;;;;;;;;137508;1273;22284;-84
2023/04/12 14:01:10;;;;;;;;;;;;;;;;;;137544;1273;22291;-83
2023/04/12 14:04:11;;;;;;;;;;;;;;;;;;137570;1273;22854;-84
2023/04/12 14:07:12;;;;;;;;;;;;;;;;;;137541;1273;23028;-83
2023/04/12 14:10:14;;;;;;;;;;;;;;;;;;137507;1273;22775;-82
2023/04/12 14:13:15;;;;;;;;;;;;;;;;;;137526;1273;22288;-83
2023/04/12 14:16:16;;;;;;;;;;;;;;;;;;137527;1273;22243;-83
2023/04/12 14:19:18;;;;;;;;;;;;;;;;;;137537;1272;22275;-84
2023/04/12 14:22:20;;;;;;;;;;;;;;;;;;137586;1273;22203;-84
2023/04/12 14:25:22;;;;;;;;;;;;;;;;;;137577;1273;22355;-83
2023/04/12 14:28:29;;;;;;;;;;;;;;;;;;137599;1273;22233;-83
2023/04/12 14:31:32;;;;;;;;;;;;;;;;;;137558;1273;22316;-84
2023/04/12 14:34:33;;;;;;;;;;;;;;;;;;137582;1273;22303;-83
2023/04/12 14:37:34;;;;;;;;;;;;;;;;;;137584;1273;22405;-82
2023/04/12 14:40:36;;;;;;;;;;;;;;;;;;137555;1273;22723;-84
2023/04/12 14:43:37;;;;;;;;;;;;;;;;;;137633;1273;22571;-83
2023/04/12 14:46:41;;;;;;;;;;;;;;;;;;137621;1273;22315;-83
2023/04/12 14:49:43;;;;;;;;;;;;;;;;;;137620;1273;22275;-84
2023/04/12 14:52:45;;;;;;;;;;;;;;;;;;137653;1273;22334;-85
2023/04/12 14:55:46;;;;;;;;;;;;;;;;;;137659;1270;22244;-85
2023/04/12 14:58:48;;;;;;;;;;;;;;;;;;137678;1273;22312;-83
2023/04/12 15:01:51;;;;;;;;;;;;;;;;;;137659;1273;22322;-85
2023/04/12 15:04:56;;;;;;;;;;;;;;;;;;137510;1273;22216;-83
2023/04/12 15:07:57;;;;;;;;;;;;;;;;;;137626;1273;22364;-86
2023/04/12 15:10:58;;;;;;;;;;;;;;;;;;137711;1273;22203;-84
2023/04/12 15:13:59;;;;;;;;;;;;;;;;;;137621;1273;22201;-82
2023/04/12 15:17:00;;;;;;;;;;;;;;;;;;137626;1273;22473;-85
2023/04/12 15:20:07;;;;;;;;;;;;;;;;;;137555;1273;22177;-84
2023/04/12 15:23:08;;;;;;;;;;;;;;;;;;137591;1270;22193;-82
2023/04/12 15:26:10;;;;;;;;;;;;;;;;;;137555;1273;22288;-83
2023/04/12 15:29:12;;;;;;;;;;;;;;;;;;137610;1273;22339;-83
2023/04/12 15:32:13;;;;;;;;;;;;;;;;;;137588;1273;22266;-84
2023/04/12 15:35:16;;;;;;;;;;;;;;;;;;137606;1273;22190;-83
2023/04/12 15:38:17;;;;;;;;;;;;;;;;;;137624;1270;23190;-82
2023/04/12 15:41:20;;;;;;;;;;;;;;;;;;137605;1273;22678;-83
2023/04/12 15:44:23;;;;;;;;;;;;;;;;;;137577;1273;22209;-82
2023/04/12 15:47:24;;;;;;;;;;;;;;;;;;137640;1273;22265;-84
2023/04/12 15:50:26;;;;;;;;;;;;;;;;;;137617;1273;22377;-85
2023/04/12 15:53:27;;;;;;;;;;;;;;;;;;137591;1273;22260;-83
2023/04/12 15:56:30;;;;;;;;;;;;;;;;;;137604;1273;22325;-84
2023/04/12 15:59:31;;;;;;;;;;;;;;;;;;137565;1273;22258;-83
2023/04/12 16:02:32;;;;;;;;;;;;;;;;;;137643;1273;22206;-84
2023/04/12 16:05:37;;;;;;;;;;;;;;;;;;137604;1273;22438;-85
2023/04/12 16:08:50;;;;;;;;;;;;;;;;;;137609;1273;22201;-84
2023/04/12 16:11:59;;;;;;;;;;;;;;;;;;137559;1273;22290;-85
2023/04/12 16:15:01;;;;;;;;;;;;;;;;;;137538;1272;22292;-83
2023/04/12 16:18:02;;;;;;;;;;;;;;;;;;137567;1273;22309;-83
2023/04/12 16:21:03;;;;;;;;;;;;;;;;;;137598;1273;22194;-83
2023/04/12 16:24:05;;;;;;;;;;;;;;;;;;137590;1273;22194;-83
2023/04/12 16:27:07;;;;;;;;;;;;;;;;;;137614;1273;22276;-83
2023/04/12 16:30:14;;;;;;;;;;;;;;;;;;137564;1273;22306;-84
2023/04/12 16:33:23;;;;;;;;;;;;;;;;;;137587;1273;22431;-83
2023/04/12 16:36:25;;;;;;;;;;;;;;;;;;137597;1273;22953;-84
2023/04/12 16:39:31;;;;;;;;;;;;;;;;;;137612;1273;22271;-85
2023/04/12 16:42:32;;;;;;;;;;;;;;;;;;137624;1273;22300;-84
2023/04/12 16:45:33;;;;;;;;;;;;;;;;;;137577;1273;22338;-84
2023/04/12 16:48:39;;;;;;;;;;;;;;;;;;137611;1273;22213;-84
2023/04/12 16:51:49;;;;;;;;;;;;;;;;;;137649;1273;22698;-84
2023/04/12 16:54:50;;;;;;;;;;;;;;;;;;137555;1273;22295;-83
2023/04/12 16:57:53;;;;;;;;;;;;;;;;;;137596;1273;22209;-82
2023/04/12 17:00:54;;;;;;;;;;;;;;;;;;137600;1273;22303;-82
2023/04/12 17:03:59;;;;;;;;;;;;;;;;;;137606;1273;22285;-83
2023/04/12 17:07:01;;;;;;;;;;;;;;;;;;137653;1273;22447;-83
2023/04/12 17:10:06;;;;;;;;;;;;;;;;;;137611;1273;22376;-83
2023/04/12 17:13:07;;;;;;;;;;;;;;;;;;137614;1273;22332;-82
2023/04/12 17:16:08;;;;;;;;;;;;;;;;;;137584;1273;22254;-83
2023/04/12 17:19:10;;;;;;;;;;;;;;;;;;137622;1273;22272;-84
2023/04/12 17:22:14;;;;;;;;;;;;;;;;;;137644;1273;22277;-84
2023/04/12 17:25:17;;;;;;;;;;;;;;;;;;137592;1273;22561;-83
2023/04/12 17:28:18;;;;;;;;;;;;;;;;;;137625;1273;22201;-83
2023/04/12 17:31:19;;;;;;;;;;;;;;;;;;137531;1273;22278;-82
2023/04/12 17:34:20;;;;;;;;;;;;;;;;;;137540;1273;22176;-82
2023/04/12 17:37:22;;;;;;;;;;;;;;;;;;137605;1273;22444;-83
2023/04/12 17:40:23;;;;;;;;;;;;;;;;;;137570;1273;22274;-84
2023/04/12 17:43:25;;;;;;;;;;;;;;;;;;137603;1273;22205;-83
2023/04/12 17:46:26;;;;;;;;;;;;;;;;;;137595;1268;22214;-82
2023/04/12 17:49:27;;;;;;;;;;;;;;;;;;137638;1273;22203;-82
2023/04/12 17:52:28;;;;;;;;;;;;;;;;;;137577;1273;22400;-82
2023/04/12 17:55:29;;;;;;;;;;;;;;;;;;137599;1273;22359;-82
2023/04/12 17:58:30;;;;;;;;;;;;;;;;;;137579;1273;22188;-83
2023/04/12 18:01:31;;;;;;;;;;;;;;;;;;137568;1273;22245;-83
2023/04/12 18:04:35;;;;;;;;;;;;;;;;;;137572;1273;22320;-83
2023/04/12 18:07:38;;;;;;;;;;;;;;;;;;137591;1273;22371;-83
2023/04/12 18:10:39;;;;;;;;;;;;;;;;;;137602;1273;22670;-84
2023/04/12 18:13:40;;;;;;;;;;;;;;;;;;137611;1273;22290;-83
2023/04/12 18:16:43;;;;;;;;;;;;;;;;;;137561;1273;22201;-83
2023/04/12 18:19:44;;;;;;;;;;;;;;;;;;137519;1273;22831;-83
2023/04/12 18:22:45;;;;;;;;;;;;;;;;;;137624;1273;22369;-83
2023/04/12 18:25:46;;;;;;;;;;;;;;;;;;137600;1273;22197;-82
2023/04/12 18:28:47;;;;;;;;;;;;;;;;;;137606;1273;22172;-84
2023/04/12 18:31:48;;;;;;;;;;;;;;;;;;137580;1273;22254;-83
2023/04/12 18:34:51;;;;;;;;;;;;;;;;;;137552;1273;22290;-83
2023/04/12 18:37:52;;;;;;;;;;;;;;;;;;137591;1273;22357;-82
2023/04/12 18:40:53;;;;;;;;;;;;;;;;;;137599;1273;22676;-83
2023/04/12 18:43:55;;;;;;;;;;;;;;;;;;137592;1273;22770;-83
2023/04/12 18:46:56;;;;;;;;;;;;;;;;;;137595;1273;22280;-84
2023/04/12 18:49:57;;;;;;;;;;;;;;;;;;137563;1273;22256;-83
2023/04/12 18:52:58;;;;;;;;;;;;;;;;;;137577;1273;22192;-84
2023/04/12 18:55:59;;;;;;;;;;;;;;;;;;137555;1273;22192;-82
2023/04/12 18:59:00;;;;;;;;;;;;;;;;;;137585;1273;22675;-82
2023/04/12 19:02:01;;;;;;;;;;;;;;;;;;137584;1273;22273;-83
2023/04/12 19:05:02;;;;;;;;;;;;;;;;;;137590;1270;22217;-85
2023/04/12 19:08:04;;;;;;;;;;;;;;;;;;137593;1273;22380;-83
2023/04/12 19:11:05;;;;;;;;;;;;;;;;;;137426;1273;190547;-83
2023/04/12 19:14:07;;;;;;;;;;;;;;;;;;137582;1273;22287;-83
2023/04/12 19:17:08;;;;;;;;;;;;;;;;;;137536;1273;22389;-83
2023/04/12 19:20:09;;;;;;;;;;;;;;;;;;137557;1273;22283;-82
2023/04/12 19:23:10;;;;;;;;;;;;;;;;;;137597;1273;22803;-83
2023/04/12 19:26:11;;;;;;;;;;;;;;;;;;137606;1273;22183;-84
2023/04/12 19:29:14;;;;;;;;;;;;;;;;;;137567;1273;22302;-84
2023/04/12 19:32:15;;;;;;;;;;;;;;;;;;137626;1273;22372;-83
2023/04/12 19:35:16;;;;;;;;;;;;;;;;;;137601;1273;22290;-83
2023/04/12 19:38:19;;;;;;;;;;;;;;;;;;137600;1273;22370;-83
2023/04/12 19:41:20;;;;;;;;;;;;;;;;;;137584;1273;22209;-83
2023/04/12 19:44:22;;;;;;;;;;;;;;;;;;137613;1273;22270;-84
2023/04/12 19:47:26;;;;;;;;;;;;;;;;;;137597;1273;22654;-82
2023/04/12 19:50:27;;;;;;;;;;;;;;;;;;137627;1273;22157;-83
2023/04/12 19:53:28;;;;;;;;;;;;;;;;;;137592;1273;22269;-83
2023/04/12 19:56:30;;;;;;;;;;;;;;;;;;137570;1273;22171;-84
2023/04/12 19:59:33;;;;;;;;;;;;;;;;;;137558;1273;22237;-83
2023/04/12 20:02:34;;;;;;;;;;;;;;;;;;137595;1273;22673;-82
2023/04/12 20:05:36;;;;;;;;;;;;;;;;;;137557;1268;22385;-85
2023/04/12 20:08:37;;;;;;;;;;;;;;;;;;137582;1273;22369;-83
2023/04/12 20:11:38;;;;;;;;;;;;;;;;;;137567;1270;22199;-82
2023/04/12 20:14:39;;;;;;;;;;;;;;;;;;137587;1273;22172;-83
2023/04/12 20:17:40;;;;;;;;;;;;;;;;;;137586;1273;22731;-83
2023/04/12 20:20:43;;;;;;;;;;;;;;;;;;137534;1273;22228;-84
2023/04/12 20:23:45;;;;;;;;;;;;;;;;;;137504;1273;22243;-84